sensor_id;sensor_type;location;lat;lon;timestamp;pressure;altitude;pressure_sealevel;temperature;humidity
63691;BME280;49837;57.280;27.070;2024-01-10T00:00:20;100637.27;;;-0.2;100.0
63691;BME280;49837;57.280;27.070;2024-01-10T00:01:20;100644.05;;;-0.22;100.0
63691;BME280;49837;57.280;27.070;2024-01-10T00:02:20;100637.81;;;-0.22;100.0
63691;BME280;49837;57.280;27.070;2024-01-10T00:03:21;100631.52;;;-0.25;100.0
63691;BME280;49837;57.280;27.070;2024-01-10T00:04:21;100623.55;;;-0.22;100.0
63691;BME280;49837;57.280;27.070;2024-01-10T00:05:21;100630.84;;;-0.19;100.0
63691;BME280;49837;57.280;27.070;2024-01-10T00:06:21;100627.24;;;-0.22;100.0
63691;BME280;49837;57.280;27.070;2024-01-10T00:07:22;100628.0;;;-0.2;100.0
63691;BME280;49837;57.280;27.070;2024-01-10T00:08:22;100621.77;;;-0.21;100.0
63691;BME280;49837;57.280;27.070;2024-01-10T00:09:23;100630.04;;;-0.18;100.0
63691;BME280;49837;57.280;27.070;2024-01-10T00:10:23;100630.34;;;-0.26;100.0
63691;BME280;49837;57.280;27.070;2024-01-10T00:11:23;100626.64;;;-0.23;100.0
63691;BME280;49837;57.280;27.070;2024-01-10T00:12:24;100626.35;;;-0.25;100.0
63691;BME280;49837;57.280;27.070;2024-01-10T00:13:24;100620.91;;;-0.23;100.0
63691;BME280;49837;57.280;27.070;2024-01-10T00:14:24;100629.15;;;-0.2;100.0
63691;BME280;49837;57.280;27.070;2024-01-10T00:15:25;100623.29;;;-0.23;100.0
63691;BME280;49837;57.280;27.070;2024-01-10T00:16:27;100630.0;;;-0.27;100.0
63691;BME280;49837;57.280;27.070;2024-01-10T00:17:25;100626.17;;;-0.26;100.0
63691;BME280;49837;57.280;27.070;2024-01-10T00:18:25;100624.69;;;-0.26;100.0
63691;BME280;49837;57.280;27.070;2024-01-10T00:19:26;100627.81;;;-0.26;100.0
63691;BME280;49837;57.280;27.070;2024-01-10T00:20:26;100635.1;;;-0.26;100.0
63691;BME280;49837;57.280;27.070;2024-01-10T00:21:27;100634.66;;;-0.24;100.0
63691;BME280;49837;57.280;27.070;2024-01-10T00:22:27;100632.75;;;-0.25;100.0
63691;BME280;49837;57.280;27.070;2024-01-10T00:23:27;100625.8;;;-0.28;100.0
63691;BME280;49837;57.280;27.070;2024-01-10T00:24:28;100625.82;;;-0.27;100.0
63691;BME280;49837;57.280;27.070;2024-01-10T00:25:28;100632.12;;;-0.27;100.0
63691;BME280;49837;57.280;27.070;2024-01-10T00:26:28;100635.77;;;-0.29;100.0
63691;BME280;49837;57.280;27.070;2024-01-10T00:27:29;100632.09;;;-0.25;100.0
63691;BME280;49837;57.280;27.070;2024-01-10T00:28:29;100633.33;;;-0.25;100.0
63691;BME280;49837;57.280;27.070;2024-01-10T00:29:29;100633.17;;;-0.28;100.0
63691;BME280;49837;57.280;27.070;2024-01-10T00:30:30;100623.7;;;-0.3;100.0
63691;BME280;49837;57.280;27.070;2024-01-10T00:31:30;100623.29;;;-0.3;100.0
63691;BME280;49837;57.280;27.070;2024-01-10T00:32:30;100626.12;;;-0.28;100.0
63691;BME280;49837;57.280;27.070;2024-01-10T00:33:31;100620.06;;;-0.31;100.0
63691;BME280;49837;57.280;27.070;2024-01-10T00:34:31;100618.66;;;-0.28;100.0
63691;BME280;49837;57.280;27.070;2024-01-10T00:35:31;100625.56;;;-0.31;100.0
63691;BME280;49837;57.280;27.070;2024-01-10T00:36:32;100627.14;;;-0.3;100.0
63691;BME280;49837;57.280;27.070;2024-01-10T00:37:32;100622.67;;;-0.32;100.0
63691;BME280;49837;57.280;27.070;2024-01-10T00:38:33;100627.81;;;-0.29;100.0
63691;BME280;49837;57.280;27.070;2024-01-10T00:39:33;100628.05;;;-0.31;100.0
63691;BME280;49837;57.280;27.070;2024-01-10T00:40:33;100629.0;;;-0.31;100.0
63691;BME280;49837;57.280;27.070;2024-01-10T00:41:33;100632.23;;;-0.3;100.0
63691;BME280;49837;57.280;27.070;2024-01-10T00:42:34;100624.66;;;-0.31;100.0
63691;BME280;49837;57.280;27.070;2024-01-10T00:43:34;100630.16;;;-0.32;100.0
63691;BME280;49837;57.280;27.070;2024-01-10T00:44:34;100635.8;;;-0.31;100.0
63691;BME280;49837;57.280;27.070;2024-01-10T00:45:35;100639.59;;;-0.3;100.0
63691;BME280;49837;57.280;27.070;2024-01-10T00:46:35;100637.42;;;-0.32;100.0
63691;BME280;49837;57.280;27.070;2024-01-10T00:47:35;100632.02;;;-0.32;100.0
63691;BME280;49837;57.280;27.070;2024-01-10T00:48:36;100639.39;;;-0.33;100.0
63691;BME280;49837;57.280;27.070;2024-01-10T00:49:36;100634.72;;;-0.32;100.0
63691;BME280;49837;57.280;27.070;2024-01-10T00:50:36;100637.83;;;-0.32;100.0
63691;BME280;49837;57.280;27.070;2024-01-10T00:51:37;100643.59;;;-0.32;100.0
63691;BME280;49837;57.280;27.070;2024-01-10T00:52:37;100652.67;;;-0.32;100.0
63691;BME280;49837;57.280;27.070;2024-01-10T00:53:37;100641.48;;;-0.3;100.0
63691;BME280;49837;57.280;27.070;2024-01-10T00:54:38;100642.2;;;-0.31;100.0
63691;BME280;49837;57.280;27.070;2024-01-10T00:55:38;100644.6;;;-0.31;100.0
63691;BME280;49837;57.280;27.070;2024-01-10T00:56:38;100642.57;;;-0.29;100.0
63691;BME280;49837;57.280;27.070;2024-01-10T00:57:39;100644.7;;;-0.26;100.0
63691;BME280;49837;57.280;27.070;2024-01-10T00:58:39;100642.17;;;-0.3;100.0
63691;BME280;49837;57.280;27.070;2024-01-10T00:59:40;100643.12;;;-0.3;100.0
63691;BME280;49837;57.280;27.070;2024-01-10T01:00:40;100639.02;;;-0.27;100.0
63691;BME280;49837;57.280;27.070;2024-01-10T01:01:40;100648.2;;;-0.34;100.0
63691;BME280;49837;57.280;27.070;2024-01-10T01:02:40;100642.83;;;-0.32;100.0
63691;BME280;49837;57.280;27.070;2024-01-10T01:03:41;100650.66;;;-0.35;100.0
63691;BME280;49837;57.280;27.070;2024-01-10T01:04:41;100644.95;;;-0.34;100.0
63691;BME280;49837;57.280;27.070;2024-01-10T01:05:41;100650.92;;;-0.34;100.0
63691;BME280;49837;57.280;27.070;2024-01-10T01:06:42;100656.92;;;-0.37;100.0
63691;BME280;49837;57.280;27.070;2024-01-10T01:07:42;100650.95;;;-0.33;100.0
63691;BME280;49837;57.280;27.070;2024-01-10T01:08:42;100657.27;;;-0.35;100.0
63691;BME280;49837;57.280;27.070;2024-01-10T01:09:43;100648.03;;;-0.35;100.0
63691;BME280;49837;57.280;27.070;2024-01-10T01:10:43;100658.69;;;-0.34;100.0
63691;BME280;49837;57.280;27.070;2024-01-10T01:11:43;100660.8;;;-0.36;100.0
63691;BME280;49837;57.280;27.070;2024-01-10T01:12:44;100658.64;;;-0.37;100.0
63691;BME280;49837;57.280;27.070;2024-01-10T01:13:44;100656.61;;;-0.35;100.0
63691;BME280;49837;57.280;27.070;2024-01-10T01:14:45;100655.8;;;-0.31;100.0
63691;BME280;49837;57.280;27.070;2024-01-10T01:15:45;100660.99;;;-0.3;100.0
63691;BME280;49837;57.280;27.070;2024-01-10T01:16:45;100660.88;;;-0.33;100.0
63691;BME280;49837;57.280;27.070;2024-01-10T01:17:45;100659.28;;;-0.34;100.0
63691;BME280;49837;57.280;27.070;2024-01-10T01:18:46;100655.33;;;-0.35;100.0
63691;BME280;49837;57.280;27.070;2024-01-10T01:19:46;100656.12;;;-0.35;100.0
63691;BME280;49837;57.280;27.070;2024-01-10T01:20:46;100657.89;;;-0.34;100.0
63691;BME280;49837;57.280;27.070;2024-01-10T01:21:47;100657.98;;;-0.34;100.0
63691;BME280;49837;57.280;27.070;2024-01-10T01:22:47;100664.06;;;-0.33;100.0
63691;BME280;49837;57.280;27.070;2024-01-10T01:23:48;100664.09;;;-0.34;100.0
63691;BME280;49837;57.280;27.070;2024-01-10T01:24:48;100662.95;;;-0.34;100.0
63691;BME280;49837;57.280;27.070;2024-01-10T01:25:48;100659.2;;;-0.34;100.0
63691;BME280;49837;57.280;27.070;2024-01-10T01:26:49;100661.37;;;-0.35;100.0
63691;BME280;49837;57.280;27.070;2024-01-10T01:27:49;100664.73;;;-0.35;100.0
63691;BME280;49837;57.280;27.070;2024-01-10T01:28:49;100662.11;;;-0.36;100.0
63691;BME280;49837;57.280;27.070;2024-01-10T01:29:50;100660.68;;;-0.34;100.0
63691;BME280;49837;57.280;27.070;2024-01-10T01:30:50;100657.87;;;-0.34;100.0
63691;BME280;49837;57.280;27.070;2024-01-10T01:31:50;100661.83;;;-0.34;100.0
63691;BME280;49837;57.280;27.070;2024-01-10T01:32:51;100663.19;;;-0.34;100.0
63691;BME280;49837;57.280;27.070;2024-01-10T01:33:51;100658.23;;;-0.37;100.0
63691;BME280;49837;57.280;27.070;2024-01-10T01:34:51;100658.94;;;-0.35;100.0
63691;BME280;49837;57.280;27.070;2024-01-10T01:35:52;100658.39;;;-0.34;100.0
63691;BME280;49837;57.280;27.070;2024-01-10T01:36:52;100659.48;;;-0.33;100.0
63691;BME280;49837;57.280;27.070;2024-01-10T01:37:52;100665.68;;;-0.34;100.0
63691;BME280;49837;57.280;27.070;2024-01-10T01:38:53;100667.3;;;-0.34;100.0
63691;BME280;49837;57.280;27.070;2024-01-10T01:39:53;100666.31;;;-0.35;100.0
63691;BME280;49837;57.280;27.070;2024-01-10T01:40:54;100666.12;;;-0.35;100.0
63691;BME280;49837;57.280;27.070;2024-01-10T01:41:54;100665.77;;;-0.33;100.0
63691;BME280;49837;57.280;27.070;2024-01-10T01:42:54;100669.16;;;-0.35;100.0
63691;BME280;49837;57.280;27.070;2024-01-10T01:43:54;100677.27;;;-0.36;100.0
63691;BME280;49837;57.280;27.070;2024-01-10T01:44:55;100671.94;;;-0.35;100.0
63691;BME280;49837;57.280;27.070;2024-01-10T01:45:55;100668.6;;;-0.34;100.0
63691;BME280;49837;57.280;27.070;2024-01-10T01:46:55;100675.15;;;-0.31;100.0
63691;BME280;49837;57.280;27.070;2024-01-10T01:47:56;100677.56;;;-0.34;100.0
63691;BME280;49837;57.280;27.070;2024-01-10T01:48:56;100671.91;;;-0.34;100.0
63691;BME280;49837;57.280;27.070;2024-01-10T01:49:56;100674.91;;;-0.31;100.0
63691;BME280;49837;57.280;27.070;2024-01-10T01:51:01;100678.95;;;-0.3;100.0
63691;BME280;49837;57.280;27.070;2024-01-10T01:52:00;100675.4;;;-0.32;100.0
63691;BME280;49837;57.280;27.070;2024-01-10T01:53:00;100674.28;;;-0.33;100.0
63691;BME280;49837;57.280;27.070;2024-01-10T01:54:00;100674.87;;;-0.37;100.0
63691;BME280;49837;57.280;27.070;2024-01-10T01:55:01;100674.78;;;-0.34;100.0
63691;BME280;49837;57.280;27.070;2024-01-10T01:56:04;100672.4;;;-0.34;100.0
63691;BME280;49837;57.280;27.070;2024-01-10T01:57:03;100676.53;;;-0.36;100.0
63691;BME280;49837;57.280;27.070;2024-01-10T01:58:03;100672.45;;;-0.34;100.0
63691;BME280;49837;57.280;27.070;2024-01-10T01:59:04;100678.85;;;-0.34;100.0
63691;BME280;49837;57.280;27.070;2024-01-10T02:00:05;100673.96;;;-0.34;100.0
63691;BME280;49837;57.280;27.070;2024-01-10T02:01:04;100677.03;;;-0.31;100.0
63691;BME280;49837;57.280;27.070;2024-01-10T02:02:04;100679.45;;;-0.33;100.0
63691;BME280;49837;57.280;27.070;2024-01-10T02:03:05;100672.38;;;-0.34;100.0
63691;BME280;49837;57.280;27.070;2024-01-10T02:04:05;100679.46;;;-0.37;100.0
63691;BME280;49837;57.280;27.070;2024-01-10T02:05:06;100673.33;;;-0.35;100.0
63691;BME280;49837;57.280;27.070;2024-01-10T02:06:06;100676.23;;;-0.37;100.0
63691;BME280;49837;57.280;27.070;2024-01-10T02:07:06;100684.05;;;-0.37;100.0
63691;BME280;49837;57.280;27.070;2024-01-10T02:08:07;100679.97;;;-0.35;100.0
63691;BME280;49837;57.280;27.070;2024-01-10T02:09:07;100679.09;;;-0.35;100.0
63691;BME280;49837;57.280;27.070;2024-01-10T02:10:08;100682.21;;;-0.35;100.0
63691;BME280;49837;57.280;27.070;2024-01-10T02:11:08;100688.66;;;-0.33;100.0
63691;BME280;49837;57.280;27.070;2024-01-10T02:12:08;100696.31;;;-0.34;100.0
63691;BME280;49837;57.280;27.070;2024-01-10T02:13:08;100693.5;;;-0.36;100.0
63691;BME280;49837;57.280;27.070;2024-01-10T02:14:08;100694.62;;;-0.36;100.0
63691;BME280;49837;57.280;27.070;2024-01-10T02:15:09;100700.66;;;-0.38;100.0
63691;BME280;49837;57.280;27.070;2024-01-10T02:16:10;100706.26;;;-0.36;100.0
63691;BME280;49837;57.280;27.070;2024-01-10T02:17:09;100705.62;;;-0.35;100.0
63691;BME280;49837;57.280;27.070;2024-01-10T02:18:10;100712.16;;;-0.36;100.0
63691;BME280;49837;57.280;27.070;2024-01-10T02:19:23;100708.91;;;-0.35;100.0
63691;BME280;49837;57.280;27.070;2024-01-10T02:20:14;100707.34;;;-0.32;100.0
63691;BME280;49837;57.280;27.070;2024-01-10T02:21:12;100714.23;;;-0.35;100.0
63691;BME280;49837;57.280;27.070;2024-01-10T02:22:12;100710.05;;;-0.32;100.0
63691;BME280;49837;57.280;27.070;2024-01-10T02:23:13;100712.83;;;-0.32;100.0
63691;BME280;49837;57.280;27.070;2024-01-10T02:24:13;100716.55;;;-0.31;100.0
63691;BME280;49837;57.280;27.070;2024-01-10T02:25:14;100727.45;;;-0.34;100.0
63691;BME280;49837;57.280;27.070;2024-01-10T02:26:15;100716.58;;;-0.34;100.0
63691;BME280;49837;57.280;27.070;2024-01-10T02:27:14;100714.91;;;-0.34;100.0
63691;BME280;49837;57.280;27.070;2024-01-10T02:28:15;100718.69;;;-0.37;100.0
63691;BME280;49837;57.280;27.070;2024-01-10T02:29:15;100722.67;;;-0.36;100.0
63691;BME280;49837;57.280;27.070;2024-01-10T02:30:15;100723.82;;;-0.35;100.0
63691;BME280;49837;57.280;27.070;2024-01-10T02:31:16;100718.09;;;-0.35;100.0
63691;BME280;49837;57.280;27.070;2024-01-10T02:32:16;100718.11;;;-0.35;100.0
63691;BME280;49837;57.280;27.070;2024-01-10T02:33:16;100726.67;;;-0.37;100.0
63691;BME280;49837;57.280;27.070;2024-01-10T02:34:17;100714.39;;;-0.32;100.0
63691;BME280;49837;57.280;27.070;2024-01-10T02:35:17;100717.23;;;-0.34;100.0
63691;BME280;49837;57.280;27.070;2024-01-10T02:36:17;100718.69;;;-0.35;100.0
63691;BME280;49837;57.280;27.070;2024-01-10T02:37:18;100719.2;;;-0.36;100.0
63691;BME280;49837;57.280;27.070;2024-01-10T02:38:18;100712.52;;;-0.36;100.0
63691;BME280;49837;57.280;27.070;2024-01-10T02:39:18;100712.92;;;-0.35;100.0
63691;BME280;49837;57.280;27.070;2024-01-10T02:40:19;100710.41;;;-0.35;100.0
63691;BME280;49837;57.280;27.070;2024-01-10T02:41:19;100707.16;;;-0.37;100.0
63691;BME280;49837;57.280;27.070;2024-01-10T02:42:19;100717.6;;;-0.39;100.0
63691;BME280;49837;57.280;27.070;2024-01-10T02:43:20;100714.59;;;-0.37;100.0
63691;BME280;49837;57.280;27.070;2024-01-10T02:44:20;100706.78;;;-0.39;100.0
63691;BME280;49837;57.280;27.070;2024-01-10T02:45:20;100708.83;;;-0.35;100.0
63691;BME280;49837;57.280;27.070;2024-01-10T02:46:21;100713.64;;;-0.37;100.0
63691;BME280;49837;57.280;27.070;2024-01-10T02:47:21;100714.16;;;-0.39;100.0
63691;BME280;49837;57.280;27.070;2024-01-10T02:48:21;100716.16;;;-0.4;100.0
63691;BME280;49837;57.280;27.070;2024-01-10T02:49:22;100712.27;;;-0.38;100.0
63691;BME280;49837;57.280;27.070;2024-01-10T02:50:22;100718.17;;;-0.38;100.0
63691;BME280;49837;57.280;27.070;2024-01-10T02:51:23;100709.11;;;-0.4;100.0
63691;BME280;49837;57.280;27.070;2024-01-10T02:52:23;100705.69;;;-0.39;100.0
63691;BME280;49837;57.280;27.070;2024-01-10T02:53:23;100708.33;;;-0.35;100.0
63691;BME280;49837;57.280;27.070;2024-01-10T02:54:23;100704.21;;;-0.37;100.0
63691;BME280;49837;57.280;27.070;2024-01-10T02:55:24;100706.81;;;-0.4;100.0
63691;BME280;49837;57.280;27.070;2024-01-10T02:56:24;100699.44;;;-0.4;100.0
63691;BME280;49837;57.280;27.070;2024-01-10T02:57:24;100696.56;;;-0.38;100.0
63691;BME280;49837;57.280;27.070;2024-01-10T02:58:25;100693.02;;;-0.39;100.0
63691;BME280;49837;57.280;27.070;2024-01-10T02:59:25;100688.92;;;-0.39;100.0
63691;BME280;49837;57.280;27.070;2024-01-10T03:00:25;100685.97;;;-0.39;100.0
63691;BME280;49837;57.280;27.070;2024-01-10T03:01:26;100693.75;;;-0.39;100.0
63691;BME280;49837;57.280;27.070;2024-01-10T03:02:26;100692.42;;;-0.43;100.0
63691;BME280;49837;57.280;27.070;2024-01-10T03:03:26;100696.06;;;-0.42;100.0
63691;BME280;49837;57.280;27.070;2024-01-10T03:04:27;100691.96;;;-0.42;100.0
63691;BME280;49837;57.280;27.070;2024-01-10T03:05:27;100703.48;;;-0.4;100.0
63691;BME280;49837;57.280;27.070;2024-01-10T03:06:27;100695.23;;;-0.42;100.0
63691;BME280;49837;57.280;27.070;2024-01-10T03:07:28;100698.47;;;-0.44;100.0
63691;BME280;49837;57.280;27.070;2024-01-10T03:08:28;100699.17;;;-0.42;100.0
63691;BME280;49837;57.280;27.070;2024-01-10T03:09:28;100696.61;;;-0.43;100.0
63691;BME280;49837;57.280;27.070;2024-01-10T03:10:29;100692.23;;;-0.41;100.0
63691;BME280;49837;57.280;27.070;2024-01-10T03:11:29;100703.57;;;-0.43;100.0
63691;BME280;49837;57.280;27.070;2024-01-10T03:12:30;100697.09;;;-0.42;100.0
63691;BME280;49837;57.280;27.070;2024-01-10T03:13:30;100693.71;;;-0.44;100.0
63691;BME280;49837;57.280;27.070;2024-01-10T03:14:30;100700.7;;;-0.43;100.0
63691;BME280;49837;57.280;27.070;2024-01-10T03:15:31;100701.44;;;-0.43;100.0
63691;BME280;49837;57.280;27.070;2024-01-10T03:16:31;100706.84;;;-0.43;100.0
63691;BME280;49837;57.280;27.070;2024-01-10T03:17:31;100704.11;;;-0.41;100.0
63691;BME280;49837;57.280;27.070;2024-01-10T03:18:31;100700.84;;;-0.41;100.0
63691;BME280;49837;57.280;27.070;2024-01-10T03:19:32;100708.34;;;-0.42;100.0
63691;BME280;49837;57.280;27.070;2024-01-10T03:20:32;100713.77;;;-0.45;100.0
63691;BME280;49837;57.280;27.070;2024-01-10T03:21:33;100705.78;;;-0.43;100.0
63691;BME280;49837;57.280;27.070;2024-01-10T03:22:33;100713.81;;;-0.43;100.0
63691;BME280;49837;57.280;27.070;2024-01-10T03:23:33;100717.86;;;-0.46;100.0
63691;BME280;49837;57.280;27.070;2024-01-10T03:24:34;100722.48;;;-0.45;100.0
63691;BME280;49837;57.280;27.070;2024-01-10T03:25:34;100727.38;;;-0.46;100.0
63691;BME280;49837;57.280;27.070;2024-01-10T03:26:34;100728.19;;;-0.45;100.0
63691;BME280;49837;57.280;27.070;2024-01-10T03:27:35;100732.2;;;-0.45;100.0
63691;BME280;49837;57.280;27.070;2024-01-10T03:28:35;100730.23;;;-0.45;100.0
63691;BME280;49837;57.280;27.070;2024-01-10T03:29:35;100733.44;;;-0.45;100.0
63691;BME280;49837;57.280;27.070;2024-01-10T03:30:36;100738.55;;;-0.45;100.0
63691;BME280;49837;57.280;27.070;2024-01-10T03:31:36;100731.98;;;-0.45;100.0
63691;BME280;49837;57.280;27.070;2024-01-10T03:32:36;100731.73;;;-0.44;100.0
63691;BME280;49837;57.280;27.070;2024-01-10T03:33:37;100736.87;;;-0.42;100.0
63691;BME280;49837;57.280;27.070;2024-01-10T03:34:37;100739.52;;;-0.44;100.0
63691;BME280;49837;57.280;27.070;2024-01-10T03:35:37;100740.97;;;-0.42;100.0
63691;BME280;49837;57.280;27.070;2024-01-10T03:36:38;100740.02;;;-0.44;100.0
63691;BME280;49837;57.280;27.070;2024-01-10T03:37:38;100736.27;;;-0.42;100.0
63691;BME280;49837;57.280;27.070;2024-01-10T03:38:38;100734.03;;;-0.44;100.0
63691;BME280;49837;57.280;27.070;2024-01-10T03:39:39;100736.53;;;-0.38;100.0
63691;BME280;49837;57.280;27.070;2024-01-10T03:40:39;100736.79;;;-0.42;100.0
63691;BME280;49837;57.280;27.070;2024-01-10T03:41:40;100727.09;;;-0.43;100.0
63691;BME280;49837;57.280;27.070;2024-01-10T03:42:40;100731.06;;;-0.45;100.0
63691;BME280;49837;57.280;27.070;2024-01-10T03:43:40;100733.21;;;-0.44;100.0
63691;BME280;49837;57.280;27.070;2024-01-10T03:44:40;100736.19;;;-0.43;100.0
63691;BME280;49837;57.280;27.070;2024-01-10T03:45:41;100732.26;;;-0.43;100.0
63691;BME280;49837;57.280;27.070;2024-01-10T03:46:41;100730.94;;;-0.43;100.0
63691;BME280;49837;57.280;27.070;2024-01-10T03:47:41;100734.05;;;-0.4;100.0
63691;BME280;49837;57.280;27.070;2024-01-10T03:48:42;100742.2;;;-0.45;100.0
63691;BME280;49837;57.280;27.070;2024-01-10T03:49:42;100742.14;;;-0.44;100.0
63691;BME280;49837;57.280;27.070;2024-01-10T03:50:42;100744.14;;;-0.43;100.0
63691;BME280;49837;57.280;27.070;2024-01-10T03:51:43;100745.75;;;-0.44;100.0
63691;BME280;49837;57.280;27.070;2024-01-10T03:52:43;100749.77;;;-0.44;100.0
63691;BME280;49837;57.280;27.070;2024-01-10T03:53:44;100755.78;;;-0.43;100.0
63691;BME280;49837;57.280;27.070;2024-01-10T03:54:44;100752.84;;;-0.42;100.0
63691;BME280;49837;57.280;27.070;2024-01-10T03:55:44;100760.86;;;-0.43;100.0
63691;BME280;49837;57.280;27.070;2024-01-10T03:56:45;100763.78;;;-0.44;100.0
63691;BME280;49837;57.280;27.070;2024-01-10T03:57:45;100768.94;;;-0.44;100.0
63691;BME280;49837;57.280;27.070;2024-01-10T03:58:45;100763.45;;;-0.45;100.0
63691;BME280;49837;57.280;27.070;2024-01-10T03:59:46;100758.29;;;-0.44;100.0
63691;BME280;49837;57.280;27.070;2024-01-10T04:00:46;100767.39;;;-0.45;100.0
63691;BME280;49837;57.280;27.070;2024-01-10T04:01:46;100766.16;;;-0.48;100.0
63691;BME280;49837;57.280;27.070;2024-01-10T04:02:47;100768.73;;;-0.5;100.0
63691;BME280;49837;57.280;27.070;2024-01-10T04:03:48;100764.55;;;-0.47;100.0
63691;BME280;49837;57.280;27.070;2024-01-10T04:04:48;100762.39;;;-0.48;100.0
63691;BME280;49837;57.280;27.070;2024-01-10T04:05:49;100762.28;;;-0.48;100.0
63691;BME280;49837;57.280;27.070;2024-01-10T04:06:49;100768.52;;;-0.48;100.0
63691;BME280;49837;57.280;27.070;2024-01-10T04:07:49;100768.78;;;-0.47;100.0
63691;BME280;49837;57.280;27.070;2024-01-10T04:08:49;100764.58;;;-0.48;100.0
63691;BME280;49837;57.280;27.070;2024-01-10T04:09:50;100764.58;;;-0.45;100.0
63691;BME280;49837;57.280;27.070;2024-01-10T04:10:50;100762.83;;;-0.46;100.0
63691;BME280;49837;57.280;27.070;2024-01-10T04:11:50;100755.95;;;-0.46;100.0
63691;BME280;49837;57.280;27.070;2024-01-10T04:12:51;100756.08;;;-0.47;100.0
63691;BME280;49837;57.280;27.070;2024-01-10T04:13:51;100750.81;;;-0.46;100.0
63691;BME280;49837;57.280;27.070;2024-01-10T04:14:51;100754.74;;;-0.46;100.0
63691;BME280;49837;57.280;27.070;2024-01-10T04:15:52;100744.85;;;-0.44;100.0
63691;BME280;49837;57.280;27.070;2024-01-10T04:16:53;100742.56;;;-0.48;100.0
63691;BME280;49837;57.280;27.070;2024-01-10T04:17:52;100737.1;;;-0.5;100.0
63691;BME280;49837;57.280;27.070;2024-01-10T04:18:53;100728.49;;;-0.47;100.0
63691;BME280;49837;57.280;27.070;2024-01-10T04:19:53;100729.55;;;-0.46;100.0
63691;BME280;49837;57.280;27.070;2024-01-10T04:20:54;100731.98;;;-0.47;100.0
63691;BME280;49837;57.280;27.070;2024-01-10T04:21:54;100734.39;;;-0.49;100.0
63691;BME280;49837;57.280;27.070;2024-01-10T04:22:54;100730.39;;;-0.53;100.0
63691;BME280;49837;57.280;27.070;2024-01-10T04:23:54;100735.62;;;-0.52;100.0
63691;BME280;49837;57.280;27.070;2024-01-10T04:24:58;100723.3;;;-0.5;100.0
63691;BME280;49837;57.280;27.070;2024-01-10T04:25:56;100718.5;;;-0.53;100.0
63691;BME280;49837;57.280;27.070;2024-01-10T04:26:56;100728.91;;;-0.52;100.0
63691;BME280;49837;57.280;27.070;2024-01-10T04:27:57;100727.19;;;-0.49;100.0
63691;BME280;49837;57.280;27.070;2024-01-10T04:28:57;100726.48;;;-0.52;100.0
63691;BME280;49837;57.280;27.070;2024-01-10T04:29:57;100736.23;;;-0.54;100.0
63691;BME280;49837;57.280;27.070;2024-01-10T04:30:58;100732.71;;;-0.55;100.0
63691;BME280;49837;57.280;27.070;2024-01-10T04:31:58;100723.48;;;-0.51;100.0
63691;BME280;49837;57.280;27.070;2024-01-10T04:32:58;100725.14;;;-0.52;100.0
63691;BME280;49837;57.280;27.070;2024-01-10T04:33:59;100723.59;;;-0.52;100.0
63691;BME280;49837;57.280;27.070;2024-01-10T04:34:59;100725.3;;;-0.52;100.0
63691;BME280;49837;57.280;27.070;2024-01-10T04:35:59;100731.02;;;-0.54;100.0
63691;BME280;49837;57.280;27.070;2024-01-10T04:37:00;100728.17;;;-0.52;100.0
63691;BME280;49837;57.280;27.070;2024-01-10T04:38:00;100728.86;;;-0.52;100.0
63691;BME280;49837;57.280;27.070;2024-01-10T04:39:00;100726.04;;;-0.49;100.0
63691;BME280;49837;57.280;27.070;2024-01-10T04:40:01;100730.14;;;-0.52;100.0
63691;BME280;49837;57.280;27.070;2024-01-10T04:41:01;100727.73;;;-0.54;100.0
63691;BME280;49837;57.280;27.070;2024-01-10T04:42:02;100721.89;;;-0.55;100.0
63691;BME280;49837;57.280;27.070;2024-01-10T04:43:02;100721.65;;;-0.55;100.0
63691;BME280;49837;57.280;27.070;2024-01-10T04:44:03;100717.03;;;-0.52;100.0
63691;BME280;49837;57.280;27.070;2024-01-10T04:45:03;100714.17;;;-0.55;100.0
63691;BME280;49837;57.280;27.070;2024-01-10T04:46:03;100717.26;;;-0.57;100.0
63691;BME280;49837;57.280;27.070;2024-01-10T04:47:04;100710.9;;;-0.59;100.0
63691;BME280;49837;57.280;27.070;2024-01-10T04:48:04;100705.56;;;-0.58;100.0
63691;BME280;49837;57.280;27.070;2024-01-10T04:49:04;100697.84;;;-0.57;100.0
63691;BME280;49837;57.280;27.070;2024-01-10T04:50:05;100700.44;;;-0.58;100.0
63691;BME280;49837;57.280;27.070;2024-01-10T04:51:06;100691.94;;;-0.57;100.0
63691;BME280;49837;57.280;27.070;2024-01-10T04:52:06;100692.16;;;-0.57;100.0
63691;BME280;49837;57.280;27.070;2024-01-10T04:53:07;100695.58;;;-0.59;100.0
63691;BME280;49837;57.280;27.070;2024-01-10T04:54:07;100690.17;;;-0.62;100.0
63691;BME280;49837;57.280;27.070;2024-01-10T04:55:08;100692.91;;;-0.61;100.0
63691;BME280;49837;57.280;27.070;2024-01-10T04:56:08;100686.66;;;-0.62;100.0
63691;BME280;49837;57.280;27.070;2024-01-10T04:57:08;100690.01;;;-0.62;100.0
63691;BME280;49837;57.280;27.070;2024-01-10T04:58:08;100686.22;;;-0.63;100.0
63691;BME280;49837;57.280;27.070;2024-01-10T04:59:09;100679.74;;;-0.63;100.0
63691;BME280;49837;57.280;27.070;2024-01-10T05:00:10;100676.84;;;-0.61;100.0
63691;BME280;49837;57.280;27.070;2024-01-10T05:01:09;100674.45;;;-0.62;100.0
63691;BME280;49837;57.280;27.070;2024-01-10T05:02:10;100674.88;;;-0.61;100.0
63691;BME280;49837;57.280;27.070;2024-01-10T05:03:10;100677.37;;;-0.63;100.0
63691;BME280;49837;57.280;27.070;2024-01-10T05:04:11;100678.31;;;-0.61;100.0
63691;BME280;49837;57.280;27.070;2024-01-10T05:05:11;100682.66;;;-0.61;100.0
63691;BME280;49837;57.280;27.070;2024-01-10T05:06:11;100680.4;;;-0.63;100.0
63691;BME280;49837;57.280;27.070;2024-01-10T05:07:12;100678.76;;;-0.6;100.0
63691;BME280;49837;57.280;27.070;2024-01-10T05:08:12;100685.09;;;-0.62;100.0
63691;BME280;49837;57.280;27.070;2024-01-10T05:09:12;100677.69;;;-0.6;100.0
63691;BME280;49837;57.280;27.070;2024-01-10T05:10:13;100682.03;;;-0.6;100.0
63691;BME280;49837;57.280;27.070;2024-01-10T05:11:15;100683.72;;;-0.58;100.0
63691;BME280;49837;57.280;27.070;2024-01-10T05:12:13;100686.34;;;-0.58;100.0